Time;durP1;ratioP1;P1;durP2;ratioP2;P2;SDS_P1;SDS_P2;PMS_P1;PMS_P2;Temp;Humidity;BMP_temperature;BMP_pressure;BME280_temperature;BME280_humidity;BME280_pressure;Samples;Min_cycle;Max_cycle;Signal;HPM_P1;HPM_P2
2022/01/29 00:00:44;;;;;;;44.83;22.60;;;7.00;99.90;;;;;;5034876;28;20097;-77
2022/01/29 00:03:10;;;;;;;44.73;22.73;;;7.00;99.90;;;;;;5052276;28;20059;-76
2022/01/29 00:05:36;;;;;;;42.13;21.80;;;7.00;99.90;;;;;;5051956;28;20073;-76
2022/01/29 00:08:03;;;;;;;46.47;22.83;;;7.00;99.90;;;;;;5035667;28;20052;-77
2022/01/29 00:10:29;;;;;;;47.97;23.60;;;7.00;99.90;;;;;;5047753;28;20049;-77
2022/01/29 00:12:54;;;;;;;44.97;22.63;;;7.00;99.90;;;;;;5055808;28;20190;-76
2022/01/29 00:15:20;;;;;;;51.70;23.67;;;7.00;99.90;;;;;;5051588;28;20061;-76
2022/01/29 00:17:46;;;;;;;47.27;23.93;;;7.00;99.90;;;;;;5051993;28;20411;-77
2022/01/29 00:20:12;;;;;;;48.47;24.93;;;6.90;99.90;;;;;;5035855;28;20048;-76
2022/01/29 00:22:37;;;;;;;45.67;23.50;;;7.00;99.90;;;;;;5055079;28;20446;-76
2022/01/29 00:25:04;;;;;;;46.20;24.33;;;7.00;99.90;;;;;;5056646;28;20056;-77
2022/01/29 00:27:34;;;;;;;51.13;26.33;;;7.00;99.90;;;;;;5035014;28;20083;-77
2022/01/29 00:30:05;;;;;;;52.17;26.37;;;7.00;99.90;;;;;;5048599;28;20623;-76
2022/01/29 00:32:31;;;;;;;55.72;27.95;;;7.00;99.90;;;;;;5039859;28;20481;-77
2022/01/29 00:34:57;;;;;;;51.53;27.53;;;7.00;99.90;;;;;;5044438;28;20051;-76
2022/01/29 00:37:22;;;;;;;53.57;28.90;;;7.00;99.90;;;;;;5051625;28;20618;-77
2022/01/29 00:39:48;;;;;;;54.37;29.73;;;6.90;99.90;;;;;;5051158;28;20322;-76
2022/01/29 00:42:14;;;;;;;57.03;29.80;;;6.90;99.90;;;;;;5052634;28;20080;-77
2022/01/29 00:44:39;;;;;;;53.37;30.00;;;6.90;99.90;;;;;;5053510;28;20048;-76
2022/01/29 00:47:05;;;;;;;56.70;29.20;;;6.90;99.90;;;;;;5052307;28;20109;-76
2022/01/29 00:49:31;;;;;;;59.20;31.20;;;6.90;99.90;;;;;;5055111;28;20045;-74
2022/01/29 00:51:57;;;;;;;63.63;32.43;;;6.90;99.90;;;;;;5055067;28;20244;-77
2022/01/29 00:54:23;;;;;;;60.40;32.43;;;6.90;99.90;;;;;;5055180;28;20064;-76
2022/01/29 00:56:48;;;;;;;62.47;32.50;;;6.90;99.90;;;;;;5058686;28;20045;-76
2022/01/29 00:59:14;;;;;;;63.27;32.23;;;6.80;99.90;;;;;;5055073;28;20106;-76
2022/01/29 01:01:40;;;;;;;60.97;31.93;;;6.90;99.90;;;;;;5054861;28;20126;-76
2022/01/29 01:04:05;;;;;;;61.67;32.70;;;6.80;99.90;;;;;;5055086;28;20055;-75
2022/01/29 01:06:31;;;;;;;57.60;30.97;;;6.80;99.90;;;;;;5038710;28;20053;-75
2022/01/29 01:08:57;;;;;;;64.57;32.43;;;6.80;99.90;;;;;;5036511;28;20497;-76
2022/01/29 01:11:23;;;;;;;59.40;31.43;;;6.80;99.90;;;;;;5055013;28;20067;-77
2022/01/29 01:13:48;;;;;;;63.33;32.20;;;6.80;99.90;;;;;;5054076;28;20060;-76
2022/01/29 01:16:14;;;;;;;60.27;32.87;;;6.90;99.90;;;;;;5054831;28;20494;-76
2022/01/29 01:18:40;;;;;;;57.77;31.17;;;6.80;99.90;;;;;;5053963;28;20049;-76
2022/01/29 01:21:05;;;;;;;58.93;30.87;;;6.80;99.90;;;;;;5038214;28;20131;-76
2022/01/29 01:23:31;;;;;;;63.07;32.40;;;6.70;99.90;;;;;;5046229;28;20241;-77
2022/01/29 01:25:58;;;;;;;55.33;30.63;;;6.80;99.90;;;;;;5058419;28;20057;-76
2022/01/29 01:28:24;;;;;;;57.80;30.37;;;6.80;99.90;;;;;;5038181;28;20056;-77
2022/01/29 01:30:51;;;;;;;58.70;30.83;;;6.80;99.90;;;;;;5037369;28;20105;-76
2022/01/29 01:33:17;;;;;;;61.83;31.93;;;6.80;99.90;;;;;;5038565;28;20064;-77
2022/01/29 01:35:47;;;;;;;62.07;31.23;;;6.80;99.90;;;;;;5037309;28;20052;-76
2022/01/29 01:38:18;;;;;;;63.97;31.87;;;6.80;99.90;;;;;;5037308;28;20041;-77
2022/01/29 01:40:49;;;;;;;60.53;29.27;;;6.80;99.90;;;;;;5054847;28;20053;-77
2022/01/29 01:43:15;;;;;;;62.57;31.73;;;6.80;99.90;;;;;;5053952;28;20655;-77
2022/01/29 01:45:41;;;;;;;54.20;29.53;;;6.80;99.90;;;;;;5037111;28;20112;-77
2022/01/29 01:48:07;;;;;;;56.80;28.87;;;6.80;99.90;;;;;;5054539;28;20057;-77
2022/01/29 01:50:35;;;;;;;54.97;29.40;;;6.80;99.90;;;;;;5053740;28;20504;-77
2022/01/29 01:53:01;;;;;;;53.50;27.67;;;6.80;99.90;;;;;;5053605;28;20043;-77
2022/01/29 01:55:27;;;;;;;54.23;28.53;;;6.90;99.90;;;;;;5060482;28;20036;-77
2022/01/29 01:57:53;;;;;;;62.97;30.47;;;6.90;99.90;;;;;;5060728;28;20052;-77
2022/01/29 02:00:19;;;;;;;55.47;29.33;;;6.80;99.90;;;;;;5053023;28;20574;-77
2022/01/29 02:02:45;;;;;;;54.27;27.47;;;6.90;99.90;;;;;;5037257;28;20049;-77
2022/01/29 02:05:12;;;;;;;52.23;28.80;;;6.90;99.90;;;;;;5053634;28;20392;-76
2022/01/29 02:07:37;;;;;;;59.73;28.57;;;6.90;99.90;;;;;;5056020;28;20037;-76
2022/01/29 02:10:09;;;;;;;54.00;28.10;;;7.00;99.90;;;;;;5052622;28;20397;-77
2022/01/29 02:12:51;;;;;;;54.08;27.23;;;7.00;99.90;;;;;;5053691;28;20056;-76
2022/01/29 02:15:21;;;;;;;58.63;27.83;;;7.00;99.90;;;;;;5053238;28;20494;-77
2022/01/29 02:17:47;;;;;;;60.17;28.70;;;6.90;99.90;;;;;;5053682;28;20049;-77
2022/01/29 02:20:15;;;;;;;55.23;28.83;;;7.00;99.90;;;;;;5053444;28;20681;-77
2022/01/29 02:22:42;;;;;;;56.60;28.13;;;7.00;99.90;;;;;;5036476;28;20072;-76
2022/01/29 02:25:41;;;;;;;66.07;29.97;;;7.00;99.90;;;;;;5055127;28;20033;-77
2022/01/29 02:28:16;;;;;;;61.83;28.53;;;7.00;99.90;;;;;;5052858;28;20041;-76
2022/01/29 02:30:45;;;;;;;54.90;28.27;;;7.00;99.90;;;;;;5048362;28;20075;-77
2022/01/29 02:33:13;;;;;;;62.97;29.30;;;7.00;99.90;;;;;;5052858;28;20059;-76
2022/01/29 02:35:44;;;;;;;65.20;28.50;;;7.00;99.90;;;;;;5053144;28;20055;-77
2022/01/29 02:38:11;;;;;;;69.95;30.55;;;7.00;99.90;;;;;;5036511;28;20049;-77
2022/01/29 02:40:52;;;;;;;62.20;29.40;;;7.00;99.90;;;;;;5053164;28;20377;-76
2022/01/29 02:43:25;;;;;;;63.37;28.80;;;7.10;99.90;;;;;;5046860;28;20420;-77
2022/01/29 02:45:53;;;;;;;64.90;29.90;;;7.00;99.90;;;;;;5047686;28;20069;-77
2022/01/29 02:48:20;;;;;;;62.10;28.87;;;7.00;99.90;;;;;;5052358;28;20130;-77
2022/01/29 02:50:47;;;;;;;64.10;30.13;;;7.10;99.90;;;;;;5036520;28;20048;-77
2022/01/29 02:53:13;;;;;;;68.73;31.17;;;7.10;99.90;;;;;;5053285;28;20044;-77
2022/01/29 02:55:39;;;;;;;67.20;30.30;;;7.10;99.90;;;;;;5061677;28;20059;-76
2022/01/29 02:58:06;;;;;;;59.67;30.70;;;7.10;99.90;;;;;;5053391;28;20142;-76
2022/01/29 03:00:32;;;;;;;64.10;29.67;;;7.10;99.90;;;;;;5052427;28;20041;-77
2022/01/29 03:02:58;;;;;;;60.13;29.10;;;7.20;99.90;;;;;;5052985;28;20366;-77
2022/01/29 03:05:24;;;;;;;60.37;27.63;;;7.20;99.90;;;;;;5052820;28;20453;-77
2022/01/29 03:07:49;;;;;;;67.17;29.47;;;7.20;99.90;;;;;;5036018;28;20055;-76
2022/01/29 03:10:15;;;;;;;70.17;31.60;;;7.20;99.90;;;;;;5035235;28;20060;-76
2022/01/29 03:12:41;;;;;;;63.77;29.50;;;7.20;99.90;;;;;;5052707;28;20755;-77
2022/01/29 03:15:09;;;;;;;66.97;29.60;;;7.20;99.90;;;;;;5039616;28;20045;-77
2022/01/29 03:17:35;;;;;;;73.23;29.30;;;7.30;99.90;;;;;;5056602;28;20057;-76
2022/01/29 03:20:02;;;;;;;61.87;27.30;;;7.30;99.90;;;;;;5041511;28;20087;-76
2022/01/29 03:22:28;;;;;;;57.17;28.77;;;7.30;99.90;;;;;;5052218;28;20053;-76
2022/01/29 03:24:53;;;;;;;56.53;27.63;;;7.30;99.90;;;;;;5052591;28;20051;-77
2022/01/29 03:27:19;;;;;;;62.37;27.33;;;7.30;99.90;;;;;;5052235;28;20136;-76
2022/01/29 03:29:45;;;;;;;65.50;26.87;;;7.40;99.90;;;;;;5053715;28;20052;-77
2022/01/29 03:32:10;;;;;;;54.03;25.57;;;7.40;99.90;;;;;;5052411;28;20044;-76
2022/01/29 03:34:36;;;;;;;54.63;23.33;;;7.40;99.90;;;;;;5036214;28;20071;-76
2022/01/29 03:37:03;;;;;;;62.37;25.77;;;7.40;99.90;;;;;;5052329;28;20045;-76
2022/01/29 03:39:30;;;;;;;55.70;26.70;;;7.50;99.90;;;;;;5058401;28;20103;-77
2022/01/29 03:42:02;;;;;;;52.03;25.40;;;7.50;99.90;;;;;;5052553;28;20056;-77
2022/01/29 03:44:28;;;;;;;57.63;24.20;;;7.50;99.90;;;;;;5052023;28;20072;-76
2022/01/29 03:46:53;;;;;;;47.77;24.07;;;7.60;99.90;;;;;;5035712;28;20045;-77
2022/01/29 03:49:19;;;;;;;52.70;23.53;;;7.60;99.90;;;;;;5035252;28;20056;-76
2022/01/29 03:51:45;;;;;;;48.57;23.03;;;7.60;99.90;;;;;;5052257;28;20055;-77
2022/01/29 03:54:10;;;;;;;53.07;24.27;;;7.60;99.90;;;;;;5051467;28;20053;-76
2022/01/29 03:56:36;;;;;;;47.80;23.43;;;7.70;99.90;;;;;;5034996;28;20084;-76
2022/01/29 03:59:02;;;;;;;50.20;23.60;;;7.70;99.90;;;;;;5034543;28;20045;-77
2022/01/29 04:01:28;;;;;;;49.80;23.83;;;7.80;99.90;;;;;;5034627;28;20049;-77
2022/01/29 04:03:54;;;;;;;48.20;23.80;;;7.70;99.90;;;;;;5034996;28;20037;-77
2022/01/29 04:06:20;;;;;;;57.03;24.83;;;7.80;99.90;;;;;;5035545;28;20048;-76
2022/01/29 04:08:45;;;;;;;47.20;23.40;;;7.70;99.90;;;;;;5035350;28;20045;-76
2022/01/29 04:11:13;;;;;;;47.53;23.30;;;7.80;99.90;;;;;;5052353;28;20136;-76
2022/01/29 04:13:43;;;;;;;50.80;23.80;;;7.80;99.90;;;;;;5042023;28;20059;-76
2022/01/29 04:16:09;;;;;;;48.20;23.57;;;7.80;99.90;;;;;;5051783;28;20057;-76
2022/01/29 04:18:35;;;;;;;51.83;24.93;;;7.80;99.90;;;;;;5051119;28;20049;-76
2022/01/29 04:21:01;;;;;;;49.17;22.93;;;7.80;99.90;;;;;;5042960;28;20106;-76
2022/01/29 04:23:27;;;;;;;46.57;21.77;;;7.80;99.90;;;;;;5054704;28;20135;-77
2022/01/29 04:25:53;;;;;;;52.27;23.57;;;7.90;99.90;;;;;;5039470;28;20108;-76
2022/01/29 04:28:27;;;;;;;49.93;24.27;;;7.80;99.90;;;;;;5054986;28;20101;-76
2022/01/29 04:30:58;;;;;;;49.50;23.10;;;7.80;99.90;;;;;;5053952;28;20816;-76
2022/01/29 04:33:30;;;;;;;54.30;24.20;;;7.80;99.90;;;;;;5055593;28;20056;-76
2022/01/29 04:35:58;;;;;;;49.80;23.38;;;7.80;99.90;;;;;;5064547;28;20048;-76
2022/01/29 04:38:25;;;;;;;41.67;22.33;;;7.80;99.90;;;;;;5055127;28;20320;-76
2022/01/29 04:40:51;;;;;;;51.50;24.10;;;7.80;99.90;;;;;;5055433;28;20069;-76
2022/01/29 04:43:16;;;;;;;47.37;22.20;;;7.80;99.90;;;;;;5038902;28;20048;-76
2022/01/29 04:45:42;;;;;;;53.07;24.00;;;7.90;99.90;;;;;;5038875;28;20033;-76
2022/01/29 04:48:08;;;;;;;45.07;22.83;;;7.90;99.90;;;;;;5038022;28;20056;-76
2022/01/29 04:50:34;;;;;;;52.17;23.40;;;7.90;99.90;;;;;;5055241;28;20048;-76
2022/01/29 04:53:00;;;;;;;53.03;22.80;;;7.90;99.90;;;;;;5054757;28;20048;-76
2022/01/29 04:55:25;;;;;;;51.50;22.90;;;7.90;99.90;;;;;;5064516;28;20048;-76
2022/01/29 04:57:51;;;;;;;46.70;23.20;;;7.90;99.90;;;;;;5054599;28;20044;-76
2022/01/29 05:00:20;;;;;;;44.93;22.90;;;7.90;99.90;;;;;;5038440;28;20048;-76
2022/01/29 05:02:46;;;;;;;41.37;22.50;;;7.90;99.90;;;;;;5038599;28;20049;-76
2022/01/29 05:05:12;;;;;;;45.10;23.40;;;7.90;99.90;;;;;;5037934;28;20055;-75
2022/01/29 05:07:38;;;;;;;44.23;21.13;;;8.00;99.90;;;;;;5054805;28;20412;-75
2022/01/29 05:10:04;;;;;;;44.57;21.80;;;8.00;99.90;;;;;;5054367;28;20056;-76
2022/01/29 05:12:43;;;;;;;45.57;22.57;;;8.00;99.90;;;;;;5038532;28;20049;-76
2022/01/29 05:28:52;;;;;;;42.97;21.90;;;8.10;99.90;;;;;;5034822;28;20048;-77
2022/01/29 05:31:17;;;;;;;48.07;22.07;;;8.00;99.90;;;;;;5053528;28;20043;-77
2022/01/29 05:33:43;;;;;;;41.93;22.03;;;8.00;99.90;;;;;;5037739;28;20504;-77
2022/01/29 05:36:09;;;;;;;42.03;21.83;;;8.00;99.90;;;;;;5053586;28;20055;-77
2022/01/29 05:38:35;;;;;;;42.03;20.13;;;8.10;99.90;;;;;;5053837;28;20108;-77
2022/01/29 05:41:03;;;;;;;40.67;21.70;;;8.10;99.90;;;;;;5053806;28;20472;-76
2022/01/29 05:43:28;;;;;;;45.77;21.00;;;8.10;99.90;;;;;;5054202;28;20045;-77
2022/01/29 05:45:54;;;;;;;38.77;21.20;;;8.10;99.90;;;;;;5037526;28;20057;-77
2022/01/29 05:48:20;;;;;;;38.30;21.07;;;8.10;99.90;;;;;;5036699;28;20052;-77
2022/01/29 05:50:45;;;;;;;38.87;20.50;;;8.10;99.90;;;;;;5053672;28;20044;-77
2022/01/29 05:53:12;;;;;;;48.70;22.20;;;8.10;99.90;;;;;;5053910;28;20073;-76
2022/01/29 05:55:37;;;;;;;41.93;21.17;;;8.20;99.90;;;;;;5054152;28;20128;-76
2022/01/29 05:58:03;;;;;;;41.67;21.47;;;8.20;99.90;;;;;;5053655;28;20809;-76
2022/01/29 06:00:29;;;;;;;41.20;20.80;;;8.10;99.90;;;;;;5053272;28;20047;-76
2022/01/29 06:03:10;;;;;;;37.93;20.23;;;8.20;99.90;;;;;;5053736;28;20048;-77
2022/01/29 06:05:37;;;;;;;38.40;20.43;;;8.20;99.90;;;;;;5076537;28;20041;-76
2022/01/29 06:08:03;;;;;;;36.40;21.70;;;8.20;99.90;;;;;;5037660;28;20083;-76
2022/01/29 06:10:29;;;;;;;44.60;20.57;;;8.20;99.90;;;;;;5053414;28;20041;-76
2022/01/29 06:13:08;;;;;;;43.50;20.80;;;8.20;99.90;;;;;;5036847;28;20056;-76
2022/01/29 06:15:41;;;;;;;37.37;19.43;;;8.20;99.90;;;;;;5053085;28;20061;-76
2022/01/29 06:18:15;;;;;;;35.00;21.00;;;8.20;99.90;;;;;;5086845;28;20060;-76
2022/01/29 06:20:42;;;;;;;36.40;19.40;;;8.20;99.90;;;;;;5053285;28;20056;-77
2022/01/29 06:23:10;;;;;;;43.10;20.47;;;8.30;99.90;;;;;;5053264;28;20059;-75
2022/01/29 06:25:36;;;;;;;38.17;20.50;;;8.30;99.90;;;;;;5043432;28;20041;-76
2022/01/29 06:28:01;;;;;;;34.80;19.70;;;8.30;99.90;;;;;;5055130;28;20138;-77
2022/01/29 06:30:27;;;;;;;33.87;18.03;;;8.30;99.90;;;;;;5052823;28;20044;-77
2022/01/29 06:32:53;;;;;;;34.13;18.43;;;8.30;99.90;;;;;;5018655;28;20084;-76
2022/01/29 06:35:19;;;;;;;34.63;17.93;;;8.30;99.90;;;;;;5052489;28;20041;-77
2022/01/29 06:37:45;;;;;;;28.80;17.67;;;8.30;99.90;;;;;;5036546;28;20045;-76
2022/01/29 06:40:11;;;;;;;34.00;18.57;;;8.30;99.90;;;;;;5052937;28;20094;-76
2022/01/29 06:42:37;;;;;;;28.47;17.37;;;8.30;99.90;;;;;;5053098;28;20044;-77
2022/01/29 06:45:04;;;;;;;30.80;16.53;;;8.30;99.90;;;;;;5053814;28;20040;-77
2022/01/29 06:47:30;;;;;;;28.90;16.97;;;8.30;99.90;;;;;;5054665;28;20051;-76
2022/01/29 06:49:56;;;;;;;30.57;16.00;;;8.40;99.90;;;;;;5052485;28;20049;-79
2022/01/29 06:52:22;;;;;;;32.60;17.10;;;8.40;99.90;;;;;;5035780;28;20033;-77
2022/01/29 06:54:48;;;;;;;29.67;16.50;;;8.40;99.90;;;;;;5036765;28;20045;-77
2022/01/29 06:57:13;;;;;;;29.63;15.33;;;8.40;99.90;;;;;;5035816;28;20044;-78
2022/01/29 06:59:39;;;;;;;30.13;14.47;;;8.40;99.90;;;;;;5020168;28;20499;-78
2022/01/29 07:02:05;;;;;;;30.10;14.43;;;8.50;99.90;;;;;;5018764;28;20088;-77
2022/01/29 07:04:30;;;;;;;24.30;14.07;;;8.50;99.90;;;;;;5052733;28;20041;-78
2022/01/29 07:06:56;;;;;;;28.60;14.00;;;8.50;99.90;;;;;;5035301;28;20056;-76
2022/01/29 07:09:22;;;;;;;24.57;13.90;;;8.50;99.90;;;;;;5036209;28;20144;-77
2022/01/29 07:11:54;;;;;;;25.77;14.40;;;8.50;99.90;;;;;;5052316;28;20064;-77
2022/01/29 07:14:20;;;;;;;;;;;8.50;99.90;;;;;;5039869;28;20060;-78
2022/01/29 07:16:45;;;;;;;27.40;13.83;;;8.60;99.90;;;;;;5048634;28;20000;-80
2022/01/29 07:19:11;;;;;;;27.07;12.93;;;8.60;99.90;;;;;;5002505;28;20060;-79
2022/01/29 07:21:37;;;;;;;25.30;13.17;;;8.60;99.90;;;;;;5031407;28;20614;-79
2022/01/29 07:24:04;;;;;;;19.80;13.07;;;8.60;99.90;;;;;;5048303;28;20045;-79
2022/01/29 07:26:30;;;;;;;22.17;12.20;;;8.60;99.90;;;;;;5057515;28;20052;-78
2022/01/29 07:28:56;;;;;;;24.17;11.80;;;8.60;99.90;;;;;;5044942;28;20049;-79
2022/01/29 07:31:22;;;;;;;22.77;12.30;;;8.70;99.90;;;;;;5037776;28;20056;-79
2022/01/29 07:33:48;;;;;;;23.47;13.10;;;8.70;99.90;;;;;;5020491;28;20044;-78
2022/01/29 07:36:14;;;;;;;22.13;12.50;;;8.70;99.90;;;;;;5035358;28;20068;-77
2022/01/29 07:38:39;;;;;;;23.97;12.93;;;8.70;99.90;;;;;;5003614;28;20052;-77
2022/01/29 07:41:05;;;;;;;24.60;13.07;;;8.70;99.90;;;;;;5019054;28;20497;-76
2022/01/29 07:43:31;;;;;;;27.17;13.20;;;8.70;99.90;;;;;;5019007;28;20080;-76
2022/01/29 07:45:57;;;;;;;23.33;13.10;;;8.70;99.90;;;;;;5003109;28;20482;-76
2022/01/29 07:48:23;;;;;;;23.03;13.23;;;8.70;99.90;;;;;;5035102;28;20247;-76
2022/01/29 07:50:50;;;;;;;30.30;14.93;;;8.70;99.90;;;;;;5018833;28;20041;-76
2022/01/29 07:53:15;;;;;;;25.00;14.00;;;8.70;99.90;;;;;;5018872;28;20067;-76
2022/01/29 07:55:42;;;;;;;31.50;14.97;;;8.60;99.90;;;;;;5035546;28;20049;-76
2022/01/29 07:58:08;;;;;;;29.20;15.60;;;8.70;99.90;;;;;;5038521;28;20041;-76
2022/01/29 08:00:33;;;;;;;30.73;15.13;;;8.60;99.90;;;;;;5022377;28;20115;-76
2022/01/29 08:02:59;;;;;;;28.37;15.00;;;8.60;99.90;;;;;;5039611;28;20103;-78
2022/01/29 08:05:26;;;;;;;31.90;15.97;;;8.60;99.90;;;;;;5056924;28;20059;-77
2022/01/29 08:07:51;;;;;;;31.50;15.47;;;8.60;99.90;;;;;;5042084;28;20113;-77
2022/01/29 08:10:17;;;;;;;28.63;16.17;;;8.60;99.90;;;;;;5039693;28;20069;-78
2022/01/29 08:12:43;;;;;;;26.30;15.27;;;8.50;99.90;;;;;;5048303;28;20119;-79
2022/01/29 08:15:09;;;;;;;30.27;15.57;;;8.60;99.90;;;;;;5041701;28;20150;-78
2022/01/29 08:17:35;;;;;;;29.40;15.57;;;8.50;99.90;;;;;;5037743;28;20041;-78
2022/01/29 08:20:01;;;;;;;27.13;15.20;;;8.60;99.90;;;;;;5040803;28;20041;-78
2022/01/29 08:22:28;;;;;;;31.97;15.60;;;8.60;99.90;;;;;;5023505;28;20123;-79
2022/01/29 08:24:54;;;;;;;27.50;14.80;;;8.60;99.90;;;;;;5038557;28;20643;-80
2022/01/29 08:27:20;;;;;;;26.27;15.03;;;8.60;99.90;;;;;;5032413;28;20041;-77
2022/01/29 08:29:46;;;;;;;26.00;14.73;;;8.60;99.90;;;;;;5050828;28;20109;-78
2022/01/29 08:32:12;;;;;;;23.37;14.40;;;8.70;99.90;;;;;;5020732;28;20076;-77
2022/01/29 08:34:39;;;;;;;24.27;13.43;;;8.70;99.90;;;;;;5031380;28;20055;-78
2022/01/29 08:37:05;;;;;;;28.43;13.27;;;8.70;99.90;;;;;;5024850;28;20106;-77
2022/01/29 08:39:32;;;;;;;24.90;12.30;;;8.80;99.90;;;;;;5056020;28;20081;-78
2022/01/29 08:41:58;;;;;;;24.73;12.97;;;8.70;99.90;;;;;;5040544;28;20841;-77
2022/01/29 08:44:24;;;;;;;21.37;11.63;;;8.80;99.90;;;;;;5039031;28;20080;-89
2022/01/29 08:46:50;;;;;;;22.90;12.83;;;8.90;99.90;;;;;;5039535;28;20053;-78
2022/01/29 08:49:16;;;;;;;18.83;10.93;;;8.90;99.90;;;;;;5052442;28;20128;-78
2022/01/29 08:51:41;;;;;;;20.43;11.67;;;8.90;99.90;;;;;;5045524;28;20045;-78
2022/01/29 08:54:07;;;;;;;19.37;10.30;;;9.00;99.90;;;;;;5047006;28;20055;-77
2022/01/29 08:56:33;;;;;;;15.27;10.57;;;9.00;99.90;;;;;;5055745;28;20049;-89
2022/01/29 08:58:59;;;;;;;16.63;9.93;;;9.10;99.90;;;;;;5022323;28;20079;-77
2022/01/29 09:01:25;;;;;;;16.60;8.97;;;9.10;99.90;;;;;;5003219;28;20132;-77
2022/01/29 09:03:51;;;;;;;16.33;9.33;;;9.10;99.90;;;;;;5011424;28;20111;-77
2022/01/29 09:06:16;;;;;;;13.03;8.60;;;9.10;99.90;;;;;;5037377;28;20542;-77
2022/01/29 09:08:46;;;;;;;14.67;7.73;;;9.20;99.90;;;;;;5037334;28;20055;-78
2022/01/29 09:11:14;;;;;;;14.57;7.67;;;9.20;99.90;;;;;;5065790;28;20075;-78
2022/01/29 09:13:40;;;;;;;13.27;6.93;;;9.20;99.90;;;;;;5021219;28;20353;-77
2022/01/29 09:16:06;;;;;;;13.13;7.37;;;9.30;99.90;;;;;;5052289;28;20457;-77
2022/01/29 09:18:32;;;;;;;10.63;6.93;;;9.30;99.90;;;;;;5037316;28;20502;-77
2022/01/29 09:20:58;;;;;;;12.47;6.50;;;9.30;99.90;;;;;;5053666;28;20057;-77
2022/01/29 09:23:24;;;;;;;12.73;6.63;;;9.40;99.90;;;;;;5036306;28;20463;-77
2022/01/29 09:25:50;;;;;;;11.67;6.80;;;9.40;99.90;;;;;;5038929;28;20066;-77
2022/01/29 09:28:16;;;;;;;17.03;6.90;;;9.40;99.90;;;;;;5054426;28;20048;-77
2022/01/29 09:30:43;;;;;;;15.93;6.40;;;9.40;99.90;;;;;;5070262;28;20044;-77
2022/01/29 09:33:09;;;;;;;14.87;7.40;;;9.50;99.90;;;;;;5019910;28;20040;-77
2022/01/29 09:35:34;;;;;;;14.90;6.80;;;9.50;99.90;;;;;;5023796;28;20105;-77
2022/01/29 09:38:00;;;;;;;9.90;6.53;;;9.50;99.90;;;;;;5055955;28;20045;-77
2022/01/29 09:40:26;;;;;;;13.70;6.83;;;9.50;99.90;;;;;;5053353;28;20048;-77
2022/01/29 09:42:52;;;;;;;13.23;7.47;;;9.50;99.90;;;;;;5037673;28;20045;-77
2022/01/29 09:45:24;;;;;;;10.43;6.83;;;9.60;99.90;;;;;;5036538;28;20047;-77
2022/01/29 09:47:50;;;;;;;14.25;7.13;;;9.60;99.90;;;;;;5053936;28;20584;-78
2022/01/29 09:50:18;;;;;;;14.57;7.27;;;9.60;99.90;;;;;;5020516;28;20052;-77
2022/01/29 09:52:45;;;;;;;11.83;6.83;;;9.60;99.90;;;;;;5053956;28;20056;-77
2022/01/29 09:55:11;;;;;;;11.17;7.30;;;9.60;99.90;;;;;;5053908;28;20091;-77
2022/01/29 09:57:36;;;;;;;12.60;7.07;;;9.60;99.90;;;;;;5037009;28;20033;-78
2022/01/29 10:00:04;;;;;;;11.57;6.63;;;9.60;99.90;;;;;;5021292;28;20104;-85
2022/01/29 10:02:30;;;;;;;13.50;6.53;;;9.60;99.90;;;;;;5071310;28;20041;-75
2022/01/29 10:04:57;;;;;;;13.37;6.37;;;9.70;99.90;;;;;;5036389;28;20052;-76
2022/01/29 10:07:26;;;;;;;10.57;5.90;;;9.70;99.90;;;;;;5039969;28;20033;-76
2022/01/29 10:09:52;;;;;;;9.80;5.57;;;9.70;99.90;;;;;;5036387;28;20040;-76
2022/01/29 10:12:26;;;;;;;11.80;6.10;;;9.80;99.90;;;;;;5053441;28;20040;-77
2022/01/29 10:15:07;;;;;;;10.53;6.00;;;9.80;99.90;;;;;;5044371;28;20130;-76
2022/01/29 10:17:50;;;;;;;9.20;5.70;;;9.80;99.90;;;;;;5036885;28;20053;-77
2022/01/29 10:20:19;;;;;;;13.77;6.50;;;9.80;99.90;;;;;;5036761;28;20105;-77
2022/01/29 10:22:59;;;;;;;8.87;5.60;;;9.90;99.90;;;;;;5069002;28;20128;-76
2022/01/29 10:25:30;;;;;;;10.10;5.60;;;9.90;99.90;;;;;;5030689;28;20052;-76
2022/01/29 10:28:14;;;;;;;12.27;6.03;;;9.90;99.90;;;;;;5034741;28;20028;-76
2022/01/29 10:30:49;;;;;;;9.73;5.30;;;9.90;99.90;;;;;;5036008;28;20044;-76
2022/01/29 10:33:19;;;;;;;10.30;5.60;;;10.00;99.90;;;;;;5052876;28;20045;-76
2022/01/29 10:35:53;;;;;;;7.53;5.33;;;10.00;99.90;;;;;;5035169;28;20070;-77
2022/01/29 10:38:22;;;;;;;14.87;5.17;;;10.00;99.90;;;;;;5036125;28;20387;-77
2022/01/29 10:41:20;;;;;;;10.60;5.27;;;10.00;99.90;;;;;;5052843;28;20136;-76
2022/01/29 10:46:42;;;;;;;10.17;5.23;;;10.00;99.90;;;;;;5040834;28;20056;-76
2022/01/29 10:49:14;;;;;;;6.97;5.40;;;10.00;99.90;;;;;;5052285;28;20055;-76
2022/01/29 10:51:40;;;;;;;10.53;5.20;;;10.00;99.90;;;;;;5036062;28;20094;-76
2022/01/29 10:54:20;;;;;;;16.80;5.50;;;10.00;99.90;;;;;;5052229;28;20049;-77
2022/01/29 10:57:01;;;;;;;11.20;5.13;;;10.00;99.90;;;;;;5035387;28;20053;-76
2022/01/29 10:59:29;;;;;;;10.17;5.27;;;10.00;99.90;;;;;;5081035;28;20061;-76
2022/01/29 11:02:08;;;;;;;13.87;5.00;;;10.00;99.90;;;;;;5085695;28;20419;-76
2022/01/29 11:04:36;;;;;;;9.43;4.67;;;10.00;99.90;;;;;;5069053;28;20342;-76
2022/01/29 11:07:06;;;;;;;10.63;5.77;;;10.00;99.90;;;;;;5062643;28;20048;-76
2022/01/29 11:09:32;;;;;;;9.63;4.77;;;10.10;99.90;;;;;;5055226;28;20066;-76
2022/01/29 11:12:02;;;;;;;10.93;4.83;;;10.10;99.90;;;;;;5019398;28;20049;-76
2022/01/29 11:14:30;;;;;;;6.87;4.43;;;10.10;99.90;;;;;;5034899;28;20057;-76
2022/01/29 11:16:56;;;;;;;9.83;4.53;;;10.10;99.90;;;;;;5035367;28;20053;-76
2022/01/29 11:19:22;;;;;;;10.00;4.50;;;10.10;99.90;;;;;;5021134;28;20053;-76
2022/01/29 11:21:53;;;;;;;12.27;4.37;;;10.10;99.90;;;;;;5019347;28;20055;-76
2022/01/29 11:24:23;;;;;;;10.27;4.63;;;10.10;99.90;;;;;;5035937;28;20254;-76
2022/01/29 11:26:50;;;;;;;7.27;4.10;;;10.10;99.90;;;;;;5037462;28;20056;-76
2022/01/29 11:29:35;;;;;;;7.07;3.77;;;10.00;99.90;;;;;;4999618;28;20049;-77
2022/01/29 11:32:20;;;;;;;7.27;3.80;;;10.10;99.90;;;;;;5060653;28;20042;-76
2022/01/29 11:35:25;;;;;;;5.97;3.60;;;10.10;99.90;;;;;;5051044;28;20045;-77
2022/01/29 11:38:03;;;;;;;7.10;4.40;;;10.10;99.90;;;;;;5034588;28;20045;-77
2022/01/29 11:40:38;;;;;;;8.23;4.30;;;10.10;99.90;;;;;;5034333;28;20136;-76
2022/01/29 11:43:19;;;;;;;12.03;4.57;;;10.10;99.90;;;;;;5031606;28;20609;-80
2022/01/29 11:45:59;;;;;;;13.33;5.03;;;10.10;99.90;;;;;;5086163;28;20068;-76
2022/01/29 11:48:29;;;;;;;11.53;4.93;;;10.10;99.90;;;;;;5051104;28;20089;-75
2022/01/29 11:50:59;;;;;;;8.93;4.30;;;10.10;99.90;;;;;;5050762;28;20063;-76
2022/01/29 11:53:48;;;;;;;8.70;4.30;;;10.20;99.90;;;;;;5019812;28;20049;-75
2022/01/29 11:56:34;;;;;;;12.87;4.33;;;10.20;99.90;;;;;;5036076;28;20581;-76
2022/01/29 11:59:19;;;;;;;11.93;3.93;;;10.20;99.90;;;;;;5069638;28;20049;-76
2022/01/29 12:01:50;;;;;;;8.83;4.73;;;10.30;99.90;;;;;;5036203;28;20083;-76
2022/01/29 12:04:17;;;;;;;11.33;3.70;;;10.30;99.90;;;;;;5036090;28;20045;-76
2022/01/29 12:07:10;;;;;;;9.80;4.27;;;10.30;99.90;;;;;;5020009;28;20104;-76
2022/01/29 12:09:52;;;;;;;12.53;3.40;;;10.30;99.90;;;;;;5035642;28;20045;-76
2022/01/29 12:12:28;;;;;;;8.30;3.80;;;10.30;99.90;;;;;;5050305;28;20049;-75
2022/01/29 12:14:56;;;;;;;12.57;3.83;;;10.30;99.90;;;;;;5017383;28;20060;-76
2022/01/29 12:17:45;;;;;;;11.23;3.43;;;10.40;99.90;;;;;;5049736;28;20065;-76
2022/01/29 12:20:14;;;;;;;8.40;3.03;;;10.40;99.90;;;;;;5062976;28;20071;-76
2022/01/29 12:22:41;;;;;;;9.83;3.20;;;10.40;99.90;;;;;;5050339;28;20041;-75
2022/01/29 12:25:10;;;;;;;7.00;3.10;;;10.40;99.90;;;;;;5066874;28;20060;-75
2022/01/29 12:27:50;;;;;;;8.80;3.40;;;10.40;99.90;;;;;;5027679;28;20037;-76
2022/01/29 12:30:21;;;;;;;7.67;2.90;;;10.50;99.90;;;;;;5019712;28;20033;-76
2022/01/29 12:33:03;;;;;;;10.93;3.30;;;10.50;99.90;;;;;;5071157;28;20491;-76
2022/01/29 12:35:33;;;;;;;8.70;3.00;;;10.50;99.90;;;;;;5024456;28;20049;-76
2022/01/29 12:37:59;;;;;;;13.90;3.10;;;10.60;99.90;;;;;;5034976;28;20049;-75
2022/01/29 12:40:26;;;;;;;7.93;2.93;;;10.60;99.90;;;;;;5050802;28;20062;-75
2022/01/29 12:43:00;;;;;;;9.87;2.43;;;10.60;99.90;;;;;;5036701;28;20340;-75
2022/01/29 12:45:30;;;;;;;7.07;2.87;;;10.70;99.90;;;;;;5054955;28;20106;-75
2022/01/29 12:48:11;;;;;;;9.63;3.23;;;10.70;99.90;;;;;;5037978;28;20057;-75
2022/01/29 12:50:38;;;;;;;9.43;2.93;;;10.70;99.90;;;;;;5038283;28;20468;-75
2022/01/29 12:53:13;;;;;;;11.33;3.03;;;10.70;99.90;;;;;;5054475;28;20138;-76
2022/01/29 12:55:39;;;;;;;9.97;3.30;;;10.70;99.90;;;;;;5054308;28;20080;-76
2022/01/29 12:58:05;;;;;;;6.13;2.63;;;10.80;99.90;;;;;;5004642;28;20049;-76
2022/01/29 13:00:32;;;;;;;8.80;2.43;;;10.80;99.90;;;;;;5037722;28;20041;-76
2022/01/29 13:03:07;;;;;;;9.67;2.53;;;10.80;99.90;;;;;;5038070;28;20079;-76